sensor_id;sensor_type;location;lat;lon;timestamp;temperature;humidity
55329;DHT22;41205;44.264;19.884;2023-04-06T00:01:42;102.80;2227.20
55329;DHT22;41205;44.264;19.884;2023-04-06T00:04:08;102.60;2227.20
55329;DHT22;41205;44.264;19.884;2023-04-06T00:06:34;102.60;2227.20
55329;DHT22;41205;44.264;19.884;2023-04-06T00:09:00;102.80;2227.20
55329;DHT22;41205;44.264;19.884;2023-04-06T00:11:26;102.70;2227.20
55329;DHT22;41205;44.264;19.884;2023-04-06T00:13:52;102.60;2227.20
55329;DHT22;41205;44.264;19.884;2023-04-06T00:16:18;102.70;2227.20
55329;DHT22;41205;44.264;19.884;2023-04-06T00:18:44;102.70;2227.20
55329;DHT22;41205;44.264;19.884;2023-04-06T00:21:13;102.70;2227.20
55329;DHT22;41205;44.264;19.884;2023-04-06T00:23:40;102.70;2227.20
55329;DHT22;41205;44.264;19.884;2023-04-06T00:26:06;102.80;2227.20
55329;DHT22;41205;44.264;19.884;2023-04-06T00:28:31;102.80;2227.20
55329;DHT22;41205;44.264;19.884;2023-04-06T00:30:57;102.80;2227.20
55329;DHT22;41205;44.264;19.884;2023-04-06T00:33:23;102.80;2227.20
55329;DHT22;41205;44.264;19.884;2023-04-06T00:35:49;102.80;2227.20
55329;DHT22;41205;44.264;19.884;2023-04-06T00:38:15;102.80;2227.20
55329;DHT22;41205;44.264;19.884;2023-04-06T00:40:42;102.80;2227.20
55329;DHT22;41205;44.264;19.884;2023-04-06T00:43:10;102.90;2227.20
55329;DHT22;41205;44.264;19.884;2023-04-06T00:45:38;102.90;2227.20
55329;DHT22;41205;44.264;19.884;2023-04-06T00:48:04;102.90;2227.20
55329;DHT22;41205;44.264;19.884;2023-04-06T00:50:30;102.80;2227.20
55329;DHT22;41205;44.264;19.884;2023-04-06T00:52:56;103.00;2227.20
55329;DHT22;41205;44.264;19.884;2023-04-06T00:55:22;102.90;2227.20
55329;DHT22;41205;44.264;19.884;2023-04-06T00:57:47;102.90;2227.20
55329;DHT22;41205;44.264;19.884;2023-04-06T01:00:16;103.00;2227.20
55329;DHT22;41205;44.264;19.884;2023-04-06T01:02:42;103.00;2227.20
55329;DHT22;41205;44.264;19.884;2023-04-06T01:05:08;103.00;2227.20
55329;DHT22;41205;44.264;19.884;2023-04-06T01:07:34;102.80;2227.20
55329;DHT22;41205;44.264;19.884;2023-04-06T01:09:59;102.80;2227.20
55329;DHT22;41205;44.264;19.884;2023-04-06T01:12:25;102.80;2227.20
55329;DHT22;41205;44.264;19.884;2023-04-06T01:14:51;102.80;2227.20
55329;DHT22;41205;44.264;19.884;2023-04-06T01:17:17;102.90;2227.20
55329;DHT22;41205;44.264;19.884;2023-04-06T01:19:43;102.80;2227.20
55329;DHT22;41205;44.264;19.884;2023-04-06T01:22:15;102.90;2227.20
55329;DHT22;41205;44.264;19.884;2023-04-06T01:24:41;102.90;2227.20
55329;DHT22;41205;44.264;19.884;2023-04-06T01:27:07;102.80;2227.20
55329;DHT22;41205;44.264;19.884;2023-04-06T01:29:32;102.80;2227.20
55329;DHT22;41205;44.264;19.884;2023-04-06T01:31:58;102.80;2227.20
55329;DHT22;41205;44.264;19.884;2023-04-06T01:34:24;102.70;2227.20
55329;DHT22;41205;44.264;19.884;2023-04-06T01:36:50;102.80;2227.20
55329;DHT22;41205;44.264;19.884;2023-04-06T01:39:15;102.80;2227.20
55329;DHT22;41205;44.264;19.884;2023-04-06T01:41:41;102.90;2227.20
55329;DHT22;41205;44.264;19.884;2023-04-06T01:44:07;102.90;2227.20
55329;DHT22;41205;44.264;19.884;2023-04-06T01:46:33;103.00;2227.20
55329;DHT22;41205;44.264;19.884;2023-04-06T01:48:59;102.90;2227.20
55329;DHT22;41205;44.264;19.884;2023-04-06T01:51:24;103.00;2227.20
55329;DHT22;41205;44.264;19.884;2023-04-06T01:53:51;103.00;2227.20
55329;DHT22;41205;44.264;19.884;2023-04-06T01:56:16;103.10;2227.20
55329;DHT22;41205;44.264;19.884;2023-04-06T01:58:42;103.00;2227.20
55329;DHT22;41205;44.264;19.884;2023-04-06T02:01:08;103.00;2227.20
55329;DHT22;41205;44.264;19.884;2023-04-06T02:03:34;103.00;2227.20
55329;DHT22;41205;44.264;19.884;2023-04-06T02:06:00;103.00;2227.20
55329;DHT22;41205;44.264;19.884;2023-04-06T02:08:26;103.10;2227.20
55329;DHT22;41205;44.264;19.884;2023-04-06T02:10:52;103.20;2227.20
55329;DHT22;41205;44.264;19.884;2023-04-06T02:13:17;103.10;2227.20
55329;DHT22;41205;44.264;19.884;2023-04-06T02:15:43;103.10;2227.20
55329;DHT22;41205;44.264;19.884;2023-04-06T02:18:09;103.20;2227.20
55329;DHT22;41205;44.264;19.884;2023-04-06T02:20:35;103.20;2227.20
55329;DHT22;41205;44.264;19.884;2023-04-06T02:23:01;103.20;2227.20
55329;DHT22;41205;44.264;19.884;2023-04-06T02:25:26;103.20;2227.20
55329;DHT22;41205;44.264;19.884;2023-04-06T02:27:53;103.30;2227.20
55329;DHT22;41205;44.264;19.884;2023-04-06T02:30:19;103.20;2227.20
55329;DHT22;41205;44.264;19.884;2023-04-06T02:32:45;103.30;2227.20
55329;DHT22;41205;44.264;19.884;2023-04-06T02:35:11;103.20;2227.20
55329;DHT22;41205;44.264;19.884;2023-04-06T02:37:36;103.10;2227.20
55329;DHT22;41205;44.264;19.884;2023-04-06T02:40:02;103.20;2227.20
55329;DHT22;41205;44.264;19.884;2023-04-06T02:42:28;103.30;2227.20
55329;DHT22;41205;44.264;19.884;2023-04-06T02:44:54;103.30;2227.20
55329;DHT22;41205;44.264;19.884;2023-04-06T02:47:20;103.30;2227.20
55329;DHT22;41205;44.264;19.884;2023-04-06T02:49:47;103.30;2227.20
55329;DHT22;41205;44.264;19.884;2023-04-06T02:52:13;128.00;2252.80
55329;DHT22;41205;44.264;19.884;2023-04-06T02:54:38;128.00;2252.80
55329;DHT22;41205;44.264;19.884;2023-04-06T02:57:05;128.00;2252.80
55329;DHT22;41205;44.264;19.884;2023-04-06T02:59:31;103.30;2227.20
55329;DHT22;41205;44.264;19.884;2023-04-06T03:01:56;103.30;2227.20
55329;DHT22;41205;44.264;19.884;2023-04-06T03:04:22;103.20;2227.20
55329;DHT22;41205;44.264;19.884;2023-04-06T03:06:51;103.20;2227.20
55329;DHT22;41205;44.264;19.884;2023-04-06T03:09:16;103.20;2227.20
55329;DHT22;41205;44.264;19.884;2023-04-06T03:11:42;103.20;2227.20
55329;DHT22;41205;44.264;19.884;2023-04-06T03:14:08;103.10;2227.20
55329;DHT22;41205;44.264;19.884;2023-04-06T03:16:33;103.20;2227.20
55329;DHT22;41205;44.264;19.884;2023-04-06T03:18:59;103.10;2227.20
55329;DHT22;41205;44.264;19.884;2023-04-06T03:21:25;103.00;2227.20
55329;DHT22;41205;44.264;19.884;2023-04-06T03:23:51;103.10;2227.20
55329;DHT22;41205;44.264;19.884;2023-04-06T03:26:17;103.00;2227.20
55329;DHT22;41205;44.264;19.884;2023-04-06T03:28:43;103.00;2227.20
55329;DHT22;41205;44.264;19.884;2023-04-06T03:31:09;103.00;2227.20
55329;DHT22;41205;44.264;19.884;2023-04-06T03:33:34;103.00;2227.20
55329;DHT22;41205;44.264;19.884;2023-04-06T03:36:00;102.90;2227.20
55329;DHT22;41205;44.264;19.884;2023-04-06T03:38:26;103.00;2227.20
55329;DHT22;41205;44.264;19.884;2023-04-06T03:40:51;103.00;2227.20
55329;DHT22;41205;44.264;19.884;2023-04-06T03:43:17;103.00;2227.20
55329;DHT22;41205;44.264;19.884;2023-04-06T03:45:43;103.00;2227.20
55329;DHT22;41205;44.264;19.884;2023-04-06T03:48:08;102.90;2227.20
55329;DHT22;41205;44.264;19.884;2023-04-06T03:50:34;102.90;2227.20
55329;DHT22;41205;44.264;19.884;2023-04-06T03:53:00;102.90;2227.20
55329;DHT22;41205;44.264;19.884;2023-04-06T03:55:28;103.00;2227.20
55329;DHT22;41205;44.264;19.884;2023-04-06T03:57:54;103.00;2227.20
55329;DHT22;41205;44.264;19.884;2023-04-06T04:00:20;103.10;2227.20
55329;DHT22;41205;44.264;19.884;2023-04-06T04:02:45;103.00;2227.20
55329;DHT22;41205;44.264;19.884;2023-04-06T04:05:11;103.00;2227.20
55329;DHT22;41205;44.264;19.884;2023-04-06T04:07:37;103.00;2227.20
55329;DHT22;41205;44.264;19.884;2023-04-06T04:10:03;103.00;2227.20
55329;DHT22;41205;44.264;19.884;2023-04-06T04:12:29;103.00;2227.20
55329;DHT22;41205;44.264;19.884;2023-04-06T04:14:55;103.00;2227.20
55329;DHT22;41205;44.264;19.884;2023-04-06T04:17:21;103.00;2227.20
55329;DHT22;41205;44.264;19.884;2023-04-06T04:19:47;102.90;2227.20
55329;DHT22;41205;44.264;19.884;2023-04-06T04:22:13;102.90;2227.20
55329;DHT22;41205;44.264;19.884;2023-04-06T04:24:38;102.90;2227.20
55329;DHT22;41205;44.264;19.884;2023-04-06T04:27:04;103.00;2227.20
55329;DHT22;41205;44.264;19.884;2023-04-06T04:29:30;103.00;2227.20
55329;DHT22;41205;44.264;19.884;2023-04-06T04:31:56;103.10;2227.20
55329;DHT22;41205;44.264;19.884;2023-04-06T04:34:22;103.00;2227.20
55329;DHT22;41205;44.264;19.884;2023-04-06T04:36:52;103.00;2227.20
55329;DHT22;41205;44.264;19.884;2023-04-06T04:39:18;103.10;2227.20
55329;DHT22;41205;44.264;19.884;2023-04-06T04:41:43;103.20;2227.20
55329;DHT22;41205;44.264;19.884;2023-04-06T04:44:09;103.10;2227.20
55329;DHT22;41205;44.264;19.884;2023-04-06T04:46:35;103.20;2227.20
55329;DHT22;41205;44.264;19.884;2023-04-06T04:49:01;103.10;2227.20
55329;DHT22;41205;44.264;19.884;2023-04-06T04:51:27;103.10;2227.20
55329;DHT22;41205;44.264;19.884;2023-04-06T04:53:53;103.20;2227.20
55329;DHT22;41205;44.264;19.884;2023-04-06T04:56:19;103.30;2227.20
55329;DHT22;41205;44.264;19.884;2023-04-06T04:58:44;103.30;2227.20
55329;DHT22;41205;44.264;19.884;2023-04-06T05:01:10;103.30;2227.20
55329;DHT22;41205;44.264;19.884;2023-04-06T05:03:36;128.00;2252.80
55329;DHT22;41205;44.264;19.884;2023-04-06T05:06:04;128.10;2252.80
55329;DHT22;41205;44.264;19.884;2023-04-06T05:08:30;128.00;2252.80
55329;DHT22;41205;44.264;19.884;2023-04-06T05:10:56;128.00;2252.80
55329;DHT22;41205;44.264;19.884;2023-04-06T05:13:22;128.00;2252.80
55329;DHT22;41205;44.264;19.884;2023-04-06T05:15:48;128.00;2252.80
55329;DHT22;41205;44.264;19.884;2023-04-06T05:18:13;128.00;2252.80
55329;DHT22;41205;44.264;19.884;2023-04-06T05:20:40;128.00;2252.80
55329;DHT22;41205;44.264;19.884;2023-04-06T05:23:06;128.10;2252.80
55329;DHT22;41205;44.264;19.884;2023-04-06T05:25:32;128.10;2252.80
55329;DHT22;41205;44.264;19.884;2023-04-06T05:27:58;128.20;2252.80
55329;DHT22;41205;44.264;19.884;2023-04-06T05:30:24;128.20;2252.80
55329;DHT22;41205;44.264;19.884;2023-04-06T05:32:50;128.30;2252.80
55329;DHT22;41205;44.264;19.884;2023-04-06T05:35:16;128.40;2252.80
55329;DHT22;41205;44.264;19.884;2023-04-06T05:37:43;128.40;2252.80
55329;DHT22;41205;44.264;19.884;2023-04-06T05:40:09;128.50;2252.80
55329;DHT22;41205;44.264;19.884;2023-04-06T05:42:42;128.40;2252.80
55329;DHT22;41205;44.264;19.884;2023-04-06T05:45:10;128.50;2252.80
55329;DHT22;41205;44.264;19.884;2023-04-06T05:47:37;128.40;2252.80
55329;DHT22;41205;44.264;19.884;2023-04-06T05:50:03;128.50;2252.80
55329;DHT22;41205;44.264;19.884;2023-04-06T05:52:29;128.60;2252.80
55329;DHT22;41205;44.264;19.884;2023-04-06T05:54:54;128.60;2252.80
55329;DHT22;41205;44.264;19.884;2023-04-06T05:57:20;128.60;2252.80
55329;DHT22;41205;44.264;19.884;2023-04-06T05:59:46;128.60;2252.80
55329;DHT22;41205;44.264;19.884;2023-04-06T06:02:12;128.70;2252.80
55329;DHT22;41205;44.264;19.884;2023-04-06T06:04:37;128.70;2252.80
55329;DHT22;41205;44.264;19.884;2023-04-06T06:07:03;128.60;2252.80
55329;DHT22;41205;44.264;19.884;2023-04-06T06:09:29;128.70;2252.80
55329;DHT22;41205;44.264;19.884;2023-04-06T06:11:55;128.90;2252.80
55329;DHT22;41205;44.264;19.884;2023-04-06T06:14:21;153.60;2252.80
55329;DHT22;41205;44.264;19.884;2023-04-06T06:16:47;128.90;2252.80
55329;DHT22;41205;44.264;19.884;2023-04-06T06:19:13;153.60;2252.80
55329;DHT22;41205;44.264;19.884;2023-04-06T06:21:39;153.60;2252.80
55329;DHT22;41205;44.264;19.884;2023-04-06T06:24:05;153.60;2252.80
55329;DHT22;41205;44.264;19.884;2023-04-06T06:26:31;154.00;2252.80
55329;DHT22;41205;44.264;19.884;2023-04-06T06:28:57;153.80;2252.80
55329;DHT22;41205;44.264;19.884;2023-04-06T06:31:22;153.80;2252.80
55329;DHT22;41205;44.264;19.884;2023-04-06T06:33:49;153.80;2252.80
55329;DHT22;41205;44.264;19.884;2023-04-06T06:36:18;153.80;2252.80
55329;DHT22;41205;44.264;19.884;2023-04-06T06:38:44;153.80;2252.80
55329;DHT22;41205;44.264;19.884;2023-04-06T06:41:10;154.00;2252.80
55329;DHT22;41205;44.264;19.884;2023-04-06T06:43:36;154.10;2252.80
55329;DHT22;41205;44.264;19.884;2023-04-06T06:46:02;154.10;2252.80
55329;DHT22;41205;44.264;19.884;2023-04-06T06:48:28;179.20;2252.80
55329;DHT22;41205;44.264;19.884;2023-04-06T06:50:54;154.30;2252.80
55329;DHT22;41205;44.264;19.884;2023-04-06T06:53:20;154.20;2252.80
55329;DHT22;41205;44.264;19.884;2023-04-06T06:55:46;154.30;2252.80
55329;DHT22;41205;44.264;19.884;2023-04-06T06:58:14;154.50;2252.80
55329;DHT22;41205;44.264;19.884;2023-04-06T07:00:40;179.30;2227.20
55329;DHT22;41205;44.264;19.884;2023-04-06T07:03:05;179.40;2227.20
55329;DHT22;41205;44.264;19.884;2023-04-06T07:05:31;179.40;2201.60
55329;DHT22;41205;44.264;19.884;2023-04-06T07:07:57;179.40;2201.60
55329;DHT22;41205;44.264;19.884;2023-04-06T07:10:23;179.50;2201.60
55329;DHT22;41205;44.264;19.884;2023-04-06T07:12:49;179.60;2201.60
55329;DHT22;41205;44.264;19.884;2023-04-06T07:15:14;179.60;2201.60
55329;DHT22;41205;44.264;19.884;2023-04-06T07:17:40;179.70;2201.60
55329;DHT22;41205;44.264;19.884;2023-04-06T07:20:11;179.90;2176.00
55329;DHT22;41205;44.264;19.884;2023-04-06T07:22:42;204.80;2150.40
55329;DHT22;41205;44.264;19.884;2023-04-06T07:25:09;204.90;2099.20
55329;DHT22;41205;44.264;19.884;2023-04-06T07:27:34;205.20;2099.20
55329;DHT22;41205;44.264;19.884;2023-04-06T07:30:00;204.90;2099.20
55329;DHT22;41205;44.264;19.884;2023-04-06T07:32:26;205.10;2073.60
55329;DHT22;41205;44.264;19.884;2023-04-06T07:34:52;205.20;2073.60
55329;DHT22;41205;44.264;19.884;2023-04-06T07:37:17;205.50;2022.40
55329;DHT22;41205;44.264;19.884;2023-04-06T07:39:43;205.70;2022.40
55329;DHT22;41205;44.264;19.884;2023-04-06T07:42:09;230.50;1996.80
55329;DHT22;41205;44.264;19.884;2023-04-06T07:44:35;230.60;1996.80
55329;DHT22;41205;44.264;19.884;2023-04-06T07:47:01;230.60;1945.60
55329;DHT22;41205;44.264;19.884;2023-04-06T07:49:27;230.60;1945.60
55329;DHT22;41205;44.264;19.884;2023-04-06T07:51:52;230.80;1945.60
55329;DHT22;41205;44.264;19.884;2023-04-06T07:54:18;231.00;1920.00
55329;DHT22;41205;44.264;19.884;2023-04-06T07:56:44;231.20;1894.40
55329;DHT22;41205;44.264;19.884;2023-04-06T07:59:10;231.20;1868.80
55329;DHT22;41205;44.264;19.884;2023-04-06T08:01:36;256.20;1868.80
55329;DHT22;41205;44.264;19.884;2023-04-06T08:04:02;256.30;1868.80
55329;DHT22;41205;44.264;19.884;2023-04-06T08:06:28;256.30;1868.80
55329;DHT22;41205;44.264;19.884;2023-04-06T08:08:54;256.10;1868.80
55329;DHT22;41205;44.264;19.884;2023-04-06T08:11:20;256.60;1843.20
55329;DHT22;41205;44.264;19.884;2023-04-06T08:13:46;281.60;1868.80
55329;DHT22;41205;44.264;19.884;2023-04-06T08:16:12;281.70;1843.20
55329;DHT22;41205;44.264;19.884;2023-04-06T08:18:37;282.10;1817.60
55329;DHT22;41205;44.264;19.884;2023-04-06T08:21:03;282.10;1792.00
55329;DHT22;41205;44.264;19.884;2023-04-06T08:23:29;282.20;1792.00
55329;DHT22;41205;44.264;19.884;2023-04-06T08:25:55;282.50;1766.40
55329;DHT22;41205;44.264;19.884;2023-04-06T08:28:21;307.30;1792.00
55329;DHT22;41205;44.264;19.884;2023-04-06T08:30:47;307.40;1817.60
55329;DHT22;41205;44.264;19.884;2023-04-06T08:33:13;307.80;1766.40
55329;DHT22;41205;44.264;19.884;2023-04-06T08:35:39;308.00;1740.80
55329;DHT22;41205;44.264;19.884;2023-04-06T08:38:05;333.20;1766.40
55329;DHT22;41205;44.264;19.884;2023-04-06T08:40:39;333.20;1740.80
55329;DHT22;41205;44.264;19.884;2023-04-06T08:43:08;333.70;1689.60
55329;DHT22;41205;44.264;19.884;2023-04-06T08:45:34;358.70;1664.00
55329;DHT22;41205;44.264;19.884;2023-04-06T08:48:03;358.50;1638.40
55329;DHT22;41205;44.264;19.884;2023-04-06T08:50:30;358.70;1638.40
55329;DHT22;41205;44.264;19.884;2023-04-06T08:52:57;358.70;1638.40
55329;DHT22;41205;44.264;19.884;2023-04-06T08:55:22;358.60;1664.00
55329;DHT22;41205;44.264;19.884;2023-04-06T08:57:49;333.70;1664.00
55329;DHT22;41205;44.264;19.884;2023-04-06T09:00:16;333.60;1664.00
55329;DHT22;41205;44.264;19.884;2023-04-06T09:02:45;332.90;1689.60
55329;DHT22;41205;44.264;19.884;2023-04-06T09:05:11;333.40;1740.80
55329;DHT22;41205;44.264;19.884;2023-04-06T09:07:38;332.80;1766.40
55329;DHT22;41205;44.264;19.884;2023-04-06T09:10:07;332.80;1817.60
55329;DHT22;41205;44.264;19.884;2023-04-06T09:12:34;333.30;1715.20
55329;DHT22;41205;44.264;19.884;2023-04-06T09:15:01;333.60;1715.20
55329;DHT22;41205;44.264;19.884;2023-04-06T09:17:28;358.60;1664.00
55329;DHT22;41205;44.264;19.884;2023-04-06T09:19:55;358.80;1664.00
55329;DHT22;41205;44.264;19.884;2023-04-06T09:22:21;358.70;1638.40
55329;DHT22;41205;44.264;19.884;2023-04-06T09:24:49;358.50;1638.40
55329;DHT22;41205;44.264;19.884;2023-04-06T09:27:16;358.70;1587.20
55329;DHT22;41205;44.264;19.884;2023-04-06T09:29:43;358.40;1587.20
55329;DHT22;41205;44.264;19.884;2023-04-06T09:32:10;333.50;1612.80
55329;DHT22;41205;44.264;19.884;2023-04-06T09:34:39;333.50;1612.80
55329;DHT22;41205;44.264;19.884;2023-04-06T09:37:15;333.20;1638.40
55329;DHT22;41205;44.264;19.884;2023-04-06T09:39:41;308.10;1612.80
55329;DHT22;41205;44.264;19.884;2023-04-06T09:42:07;307.40;1612.80
55329;DHT22;41205;44.264;19.884;2023-04-06T09:44:33;307.30;1664.00
55329;DHT22;41205;44.264;19.884;2023-04-06T09:46:59;282.50;1638.40
55329;DHT22;41205;44.264;19.884;2023-04-06T09:49:30;282.50;1689.60
55329;DHT22;41205;44.264;19.884;2023-04-06T09:52:03;307.40;1689.60
55329;DHT22;41205;44.264;19.884;2023-04-06T09:54:30;307.20;1689.60
55329;DHT22;41205;44.264;19.884;2023-04-06T10:07:45;282.40;1715.20
55329;DHT22;41205;44.264;19.884;2023-04-06T10:10:14;307.30;1740.80
55329;DHT22;41205;44.264;19.884;2023-04-06T10:12:40;307.50;1715.20
55329;DHT22;41205;44.264;19.884;2023-04-06T10:15:08;282.40;1612.80
55329;DHT22;41205;44.264;19.884;2023-04-06T10:17:34;307.50;1689.60
55329;DHT22;41205;44.264;19.884;2023-04-06T10:20:04;307.60;1664.00
55329;DHT22;41205;44.264;19.884;2023-04-06T10:22:40;307.50;1689.60
55329;DHT22;41205;44.264;19.884;2023-04-06T10:25:08;307.80;1689.60
55329;DHT22;41205;44.264;19.884;2023-04-06T10:27:34;307.90;1638.40
55329;DHT22;41205;44.264;19.884;2023-04-06T10:30:06;308.10;1638.40
55329;DHT22;41205;44.264;19.884;2023-04-06T10:32:36;308.10;1612.80
55329;DHT22;41205;44.264;19.884;2023-04-06T10:35:09;308.00;1612.80
55329;DHT22;41205;44.264;19.884;2023-04-06T10:40:20;308.10;1587.20
55329;DHT22;41205;44.264;19.884;2023-04-06T10:42:46;332.80;1638.40
55329;DHT22;41205;44.264;19.884;2023-04-06T10:45:24;332.80;1664.00
55329;DHT22;41205;44.264;19.884;2023-04-06T10:47:54;308.00;1638.40
55329;DHT22;41205;44.264;19.884;2023-04-06T10:50:20;307.60;1638.40
55329;DHT22;41205;44.264;19.884;2023-04-06T10:52:47;307.70;1587.20
55329;DHT22;41205;44.264;19.884;2023-04-06T10:55:23;308.00;1561.60
55329;DHT22;41205;44.264;19.884;2023-04-06T10:57:51;333.00;1587.20
55329;DHT22;41205;44.264;19.884;2023-04-06T11:00:17;307.80;1664.00
55329;DHT22;41205;44.264;19.884;2023-04-06T11:02:44;307.60;1638.40
55329;DHT22;41205;44.264;19.884;2023-04-06T11:05:11;307.40;1638.40
55329;DHT22;41205;44.264;19.884;2023-04-06T11:07:39;307.60;1664.00
55329;DHT22;41205;44.264;19.884;2023-04-06T11:10:06;307.60;1664.00
55329;DHT22;41205;44.264;19.884;2023-04-06T11:12:32;307.90;1612.80
55329;DHT22;41205;44.264;19.884;2023-04-06T11:15:00;307.80;1587.20
55329;DHT22;41205;44.264;19.884;2023-04-06T11:17:34;307.90;1612.80
55329;DHT22;41205;44.264;19.884;2023-04-06T11:20:02;332.80;1612.80
55329;DHT22;41205;44.264;19.884;2023-04-06T11:22:28;308.10;1587.20
55329;DHT22;41205;44.264;19.884;2023-04-06T11:25:05;308.00;1536.00
55329;DHT22;41205;44.264;19.884;2023-04-06T11:27:33;307.80;1561.60
55329;DHT22;41205;44.264;19.884;2023-04-06T11:30:00;307.70;1587.20
55329;DHT22;41205;44.264;19.884;2023-04-06T11:32:26;307.80;1612.80
55329;DHT22;41205;44.264;19.884;2023-04-06T11:34:52;307.80;1561.60
55329;DHT22;41205;44.264;19.884;2023-04-06T11:37:17;307.90;1587.20
55329;DHT22;41205;44.264;19.884;2023-04-06T11:42:09;332.80;1612.80
55329;DHT22;41205;44.264;19.884;2023-04-06T11:44:37;307.90;1587.20
55329;DHT22;41205;44.264;19.884;2023-04-06T11:47:08;307.90;1587.20
55329;DHT22;41205;44.264;19.884;2023-04-06T11:49:40;307.60;1587.20
55329;DHT22;41205;44.264;19.884;2023-04-06T11:54:40;307.60;1561.60
55329;DHT22;41205;44.264;19.884;2023-04-06T11:57:08;307.40;1612.80
55329;DHT22;41205;44.264;19.884;2023-04-06T11:59:34;307.60;1587.20
55329;DHT22;41205;44.264;19.884;2023-04-06T12:02:02;307.60;1638.40
55329;DHT22;41205;44.264;19.884;2023-04-06T12:04:28;307.70;1587.20
55329;DHT22;41205;44.264;19.884;2023-04-06T12:06:54;307.70;1587.20
55329;DHT22;41205;44.264;19.884;2023-04-06T12:09:20;307.60;1612.80
55329;DHT22;41205;44.264;19.884;2023-04-06T12:11:46;307.40;1612.80
55329;DHT22;41205;44.264;19.884;2023-04-06T12:14:12;282.50;1612.80
55329;DHT22;41205;44.264;19.884;2023-04-06T12:16:38;282.50;1612.80
55329;DHT22;41205;44.264;19.884;2023-04-06T12:19:04;307.30;1638.40
55329;DHT22;41205;44.264;19.884;2023-04-06T12:21:31;307.20;1664.00
55329;DHT22;41205;44.264;19.884;2023-04-06T12:24:00;307.40;1664.00
55329;DHT22;41205;44.264;19.884;2023-04-06T12:26:26;307.40;1638.40
55329;DHT22;41205;44.264;19.884;2023-04-06T12:28:52;307.40;1638.40
55329;DHT22;41205;44.264;19.884;2023-04-06T12:31:20;307.60;1638.40
55329;DHT22;41205;44.264;19.884;2023-04-06T12:33:49;307.60;1638.40
55329;DHT22;41205;44.264;19.884;2023-04-06T12:36:19;307.60;1638.40
55329;DHT22;41205;44.264;19.884;2023-04-06T12:38:47;307.60;1638.40
55329;DHT22;41205;44.264;19.884;2023-04-06T12:41:13;307.80;1638.40
55329;DHT22;41205;44.264;19.884;2023-04-06T12:43:42;307.50;1638.40
55329;DHT22;41205;44.264;19.884;2023-04-06T12:46:08;307.80;1638.40
55329;DHT22;41205;44.264;19.884;2023-04-06T12:48:34;308.00;1664.00
55329;DHT22;41205;44.264;19.884;2023-04-06T12:51:02;332.80;1664.00
55329;DHT22;41205;44.264;19.884;2023-04-06T12:53:28;333.20;1638.40
55329;DHT22;41205;44.264;19.884;2023-04-06T12:55:55;333.30;1638.40
55329;DHT22;41205;44.264;19.884;2023-04-06T12:58:21;332.90;1561.60
55329;DHT22;41205;44.264;19.884;2023-04-06T13:00:48;333.10;1587.20
55329;DHT22;41205;44.264;19.884;2023-04-06T13:03:18;333.00;1612.80
55329;DHT22;41205;44.264;19.884;2023-04-06T13:05:45;332.80;1561.60
55329;DHT22;41205;44.264;19.884;2023-04-06T13:08:12;307.40;1561.60
55329;DHT22;41205;44.264;19.884;2023-04-06T13:10:43;307.40;1612.80
55329;DHT22;41205;44.264;19.884;2023-04-06T13:13:08;307.30;1638.40
55329;DHT22;41205;44.264;19.884;2023-04-06T13:15:34;307.30;1612.80
55329;DHT22;41205;44.264;19.884;2023-04-06T13:18:02;307.40;1561.60
55329;DHT22;41205;44.264;19.884;2023-04-06T13:20:28;307.40;1587.20
55329;DHT22;41205;44.264;19.884;2023-04-06T13:22:54;307.20;1612.80
55329;DHT22;41205;44.264;19.884;2023-04-06T13:25:20;282.40;1587.20
55329;DHT22;41205;44.264;19.884;2023-04-06T13:27:46;282.30;1587.20
55329;DHT22;41205;44.264;19.884;2023-04-06T13:30:13;282.40;1587.20
55329;DHT22;41205;44.264;19.884;2023-04-06T13:32:39;282.20;1612.80
55329;DHT22;41205;44.264;19.884;2023-04-06T13:35:06;282.40;1612.80
55329;DHT22;41205;44.264;19.884;2023-04-06T13:37:33;282.50;1638.40
55329;DHT22;41205;44.264;19.884;2023-04-06T13:39:59;307.20;1612.80
55329;DHT22;41205;44.264;19.884;2023-04-06T13:42:25;307.40;1638.40
55329;DHT22;41205;44.264;19.884;2023-04-06T13:44:52;307.80;1638.40
55329;DHT22;41205;44.264;19.884;2023-04-06T13:47:19;332.80;1612.80
55329;DHT22;41205;44.264;19.884;2023-04-06T13:49:46;333.20;1587.20
55329;DHT22;41205;44.264;19.884;2023-04-06T13:52:12;332.90;1587.20
55329;DHT22;41205;44.264;19.884;2023-04-06T13:54:38;333.00;1561.60
55329;DHT22;41205;44.264;19.884;2023-04-06T13:57:04;333.20;1587.20
55329;DHT22;41205;44.264;19.884;2023-04-06T13:59:36;332.80;1612.80
55329;DHT22;41205;44.264;19.884;2023-04-06T14:02:04;308.00;1587.20
55329;DHT22;41205;44.264;19.884;2023-04-06T14:04:31;308.00;1587.20
55329;DHT22;41205;44.264;19.884;2023-04-06T14:06:57;307.60;1561.60
55329;DHT22;41205;44.264;19.884;2023-04-06T14:09:23;307.50;1587.20
55329;DHT22;41205;44.264;19.884;2023-04-06T14:11:50;307.60;1587.20
55329;DHT22;41205;44.264;19.884;2023-04-06T14:14:16;307.80;1587.20
55329;DHT22;41205;44.264;19.884;2023-04-06T14:16:42;307.60;1561.60
55329;DHT22;41205;44.264;19.884;2023-04-06T14:19:15;307.60;1587.20
55329;DHT22;41205;44.264;19.884;2023-04-06T14:21:43;307.60;1587.20
55329;DHT22;41205;44.264;19.884;2023-04-06T14:24:09;307.60;1587.20
55329;DHT22;41205;44.264;19.884;2023-04-06T14:26:35;307.50;1587.20
55329;DHT22;41205;44.264;19.884;2023-04-06T14:29:02;307.40;1612.80
55329;DHT22;41205;44.264;19.884;2023-04-06T14:31:28;307.60;1612.80
55329;DHT22;41205;44.264;19.884;2023-04-06T14:33:54;307.40;1638.40
55329;DHT22;41205;44.264;19.884;2023-04-06T14:36:20;307.40;1612.80
55329;DHT22;41205;44.264;19.884;2023-04-06T14:38:46;307.40;1612.80
55329;DHT22;41205;44.264;19.884;2023-04-06T14:41:21;307.40;1612.80
55329;DHT22;41205;44.264;19.884;2023-04-06T14:43:48;307.40;1612.80
55329;DHT22;41205;44.264;19.884;2023-04-06T14:46:13;307.50;1612.80
55329;DHT22;41205;44.264;19.884;2023-04-06T14:48:41;307.30;1587.20
55329;DHT22;41205;44.264;19.884;2023-04-06T14:51:06;307.40;1587.20